createdAt,value
2019-01-30T00:01:28.758Z,32.20
2019-01-30T00:03:57.089Z,36.23
2019-01-30T00:06:25.214Z,37.77
2019-01-30T00:08:53.274Z,34.50
2019-01-30T00:11:21.278Z,35.43
2019-01-30T00:13:49.237Z,37.63
2019-01-30T00:16:17.272Z,34.57
2019-01-30T00:18:47.921Z,37.60
2019-01-30T00:21:16.515Z,33.87
2019-01-30T00:23:44.916Z,34.63
2019-01-30T00:26:13.135Z,42.93
2019-01-30T00:28:40.829Z,35.40
2019-01-30T00:31:08.699Z,35.43
2019-01-30T00:33:36.859Z,34.50
2019-01-30T00:36:04.960Z,33.93
2019-01-30T00:38:33.350Z,33.13
2019-01-30T00:41:01.508Z,34.87
2019-01-30T00:43:29.615Z,33.27
2019-01-30T00:45:57.606Z,33.03
2019-01-30T00:48:25.723Z,34.07
2019-01-30T00:50:54.817Z,31.83
2019-01-30T00:53:22.916Z,31.73
2019-01-30T00:55:51.024Z,33.00
2019-01-30T00:58:19.115Z,32.20
2019-01-30T01:00:47.133Z,30.50
2019-01-30T01:03:15.352Z,30.20
2019-01-30T01:05:43.354Z,33.13
2019-01-30T01:08:12.532Z,31.37
2019-01-30T01:10:40.519Z,31.87
2019-01-30T01:13:08.539Z,30.07
2019-01-30T01:15:36.670Z,32.43
2019-01-30T01:18:04.928Z,30.97
2019-01-30T01:20:32.981Z,31.53
2019-01-30T01:23:01.181Z,30.93
2019-01-30T01:25:29.268Z,30.90
2019-01-30T01:27:57.305Z,30.73
2019-01-30T01:30:26.030Z,30.40
2019-01-30T01:32:54.053Z,29.80
2019-01-30T01:35:22.232Z,28.87
2019-01-30T01:37:50.203Z,32.43
2019-01-30T01:40:18.197Z,30.13
2019-01-30T01:42:46.222Z,28.10
2019-01-30T01:45:15.752Z,27.80
2019-01-30T01:47:43.958Z,31.60
2019-01-30T01:50:14.102Z,33.20
2019-01-30T01:52:42.083Z,33.57
2019-01-30T01:55:10.245Z,30.57
2019-01-30T01:57:38.388Z,30.80
2019-01-30T02:00:10.864Z,30.03
2019-01-30T02:02:38.834Z,32.77
2019-01-30T02:05:08.968Z,30.83
2019-01-30T02:07:37.050Z,32.87
2019-01-30T02:10:05.935Z,29.90
2019-01-30T02:12:33.965Z,30.37
2019-01-30T02:15:02.173Z,29.20
2019-01-30T02:17:30.312Z,33.93
2019-01-30T02:19:58.120Z,30.37
2019-01-30T02:22:26.169Z,28.63
2019-01-30T02:24:54.086Z,28.43
2019-01-30T02:27:21.937Z,32.37
2019-01-30T02:29:49.876Z,29.37
2019-01-30T02:32:18.042Z,30.63
2019-01-30T02:34:46.119Z,31.63
2019-01-30T02:37:14.542Z,32.93
2019-01-30T02:39:42.622Z,33.93
2019-01-30T02:42:10.930Z,34.47
2019-01-30T02:44:38.675Z,30.83
2019-01-30T02:47:06.770Z,32.63
2019-01-30T02:49:34.686Z,32.33
2019-01-30T02:52:04.279Z,32.40
2019-01-30T02:54:32.169Z,32.53
2019-01-30T02:57:00.107Z,35.27
2019-01-30T02:59:28.016Z,32.07
2019-01-30T03:02:14.377Z,34.00
2019-01-30T03:04:42.379Z,31.37
2019-01-30T03:07:10.159Z,34.03
2019-01-30T03:09:38.236Z,33.07
2019-01-30T03:12:06.258Z,33.70
2019-01-30T03:14:34.209Z,36.40
2019-01-30T03:17:02.227Z,36.30
2019-01-30T03:19:30.147Z,37.10
2019-01-30T03:21:58.338Z,34.00
2019-01-30T03:24:27.385Z,33.10
2019-01-30T03:26:55.454Z,34.60
2019-01-30T03:29:23.364Z,34.97
2019-01-30T03:31:51.464Z,36.83
2019-01-30T03:34:21.172Z,39.47
2019-01-30T03:36:49.185Z,40.97
2019-01-30T03:39:17.255Z,37.67
2019-01-30T03:41:45.294Z,39.17
2019-01-30T03:44:13.487Z,37.43
2019-01-30T03:46:41.691Z,38.13
2019-01-30T03:49:09.652Z,41.43
2019-01-30T03:51:37.817Z,41.07
2019-01-30T03:54:06.665Z,39.43
2019-01-30T03:56:34.816Z,41.27
2019-01-30T03:59:04.322Z,40.37
2019-01-30T04:01:32.470Z,41.90
2019-01-30T04:04:00.742Z,42.60
2019-01-30T04:06:29.041Z,41.43
2019-01-30T04:08:57.413Z,43.07
2019-01-30T04:11:25.291Z,40.07
2019-01-30T04:13:53.291Z,43.33
2019-01-30T04:16:21.420Z,39.87
2019-01-30T04:18:49.470Z,41.60
2019-01-30T04:21:17.374Z,42.47
2019-01-30T04:23:45.298Z,43.03
2019-01-30T04:26:13.299Z,38.10
2019-01-30T04:28:41.341Z,42.30
2019-01-30T04:31:09.374Z,40.93
2019-01-30T04:33:37.495Z,42.83
2019-01-30T04:36:05.534Z,38.97
2019-01-30T04:38:33.618Z,42.23
2019-01-30T04:41:01.448Z,37.10
2019-01-30T04:43:29.364Z,38.47
2019-01-30T04:45:57.442Z,37.47
2019-01-30T04:48:25.573Z,41.27
2019-01-30T04:50:53.614Z,42.83
2019-01-30T04:53:21.529Z,42.93
2019-01-30T04:55:49.454Z,39.10
2019-01-30T04:58:19.162Z,40.03
2019-01-30T05:00:46.934Z,38.97
2019-01-30T05:03:15.479Z,37.97
2019-01-30T05:05:43.246Z,35.90
2019-01-30T05:08:11.098Z,36.70
2019-01-30T05:10:38.900Z,35.40
2019-01-30T05:13:06.986Z,34.70
2019-01-30T05:15:35.053Z,38.20
2019-01-30T05:18:03.162Z,37.63
2019-01-30T05:20:33.030Z,35.07
2019-01-30T05:23:01.139Z,33.60
2019-01-30T05:25:29.237Z,30.07
2019-01-30T05:27:59.097Z,34.13
2019-01-30T05:30:28.887Z,33.90
2019-01-30T05:32:57.058Z,35.00
2019-01-30T05:35:25.046Z,35.53
2019-01-30T05:37:53.132Z,36.03
2019-01-30T05:40:21.325Z,34.67
2019-01-30T05:42:49.373Z,33.87
2019-01-30T05:45:17.679Z,32.37
2019-01-30T05:47:46.809Z,34.97
2019-01-30T05:50:15.108Z,35.53
2019-01-30T05:52:43.033Z,34.10
2019-01-30T05:55:11.495Z,34.57
2019-01-30T05:57:39.550Z,35.93
2019-01-30T06:00:24.455Z,36.47
2019-01-30T06:02:52.576Z,31.93
2019-01-30T06:05:20.882Z,31.27
2019-01-30T06:07:48.996Z,35.33
2019-01-30T06:10:16.964Z,31.73
2019-01-30T06:12:44.813Z,33.13
2019-01-30T06:15:13.296Z,33.73
2019-01-30T06:17:41.493Z,33.87
2019-01-30T06:20:13.051Z,36.23
2019-01-30T06:22:41.095Z,35.90
2019-01-30T06:25:09.339Z,32.80
2019-01-30T06:27:37.441Z,29.47
2019-01-30T06:30:06.734Z,34.00
2019-01-30T06:32:34.693Z,29.33
2019-01-30T06:35:02.601Z,31.53
2019-01-30T06:37:30.720Z,26.37
2019-01-30T06:39:58.699Z,29.57
2019-01-30T06:42:26.563Z,27.27
2019-01-30T06:44:54.523Z,27.23
2019-01-30T06:47:22.422Z,28.33
2019-01-30T06:49:50.599Z,26.97
2019-01-30T06:52:18.822Z,25.93
2019-01-30T06:54:46.996Z,28.90
2019-01-30T06:57:14.978Z,28.47
2019-01-30T06:59:42.976Z,27.50
2019-01-30T07:02:10.972Z,30.07
2019-01-30T07:04:39.174Z,25.07
2019-01-30T07:07:07.421Z,29.37
2019-01-30T07:09:35.665Z,29.63
2019-01-30T07:12:04.003Z,30.50
2019-01-30T07:14:31.834Z,30.40
2019-01-30T07:16:59.960Z,29.60
2019-01-30T07:19:28.096Z,27.60
2019-01-30T07:21:55.971Z,28.87
2019-01-30T07:24:23.935Z,29.30
2019-01-30T07:26:52.057Z,25.33
2019-01-30T07:29:20.076Z,25.07
2019-01-30T07:31:48.070Z,25.90
2019-01-30T07:34:15.968Z,27.97
2019-01-30T07:36:43.965Z,28.43
2019-01-30T07:39:11.962Z,28.20
2019-01-30T07:41:39.844Z,28.13
2019-01-30T07:44:07.696Z,28.83
2019-01-30T07:46:35.864Z,27.27
2019-01-30T07:49:03.852Z,27.30
2019-01-30T07:51:31.931Z,27.97
2019-01-30T07:53:59.985Z,29.00
2019-01-30T07:56:29.001Z,27.43
2019-01-30T07:58:57.258Z,26.43
2019-01-30T08:01:25.221Z,27.73
2019-01-30T08:03:53.725Z,23.77
2019-01-30T08:06:22.064Z,24.57
2019-01-30T08:08:50.182Z,24.10
2019-01-30T08:11:18.387Z,24.00
2019-01-30T08:13:46.264Z,25.90
2019-01-30T08:16:14.070Z,24.57
2019-01-30T08:18:41.929Z,24.60
2019-01-30T08:21:09.843Z,23.73
2019-01-30T08:23:37.998Z,23.97
2019-01-30T08:26:06.200Z,22.87
2019-01-30T08:28:34.492Z,26.50
2019-01-30T08:31:03.087Z,24.63
2019-01-30T08:33:31.037Z,24.30
2019-01-30T08:35:59.155Z,29.67
2019-01-30T08:38:27.148Z,26.00
2019-01-30T08:40:55.154Z,24.97
2019-01-30T08:43:23.179Z,28.50
2019-01-30T08:45:51.256Z,30.57
2019-01-30T08:48:19.426Z,29.13
2019-01-30T08:50:47.471Z,30.40
2019-01-30T08:53:15.341Z,26.80
2019-01-30T08:55:43.354Z,30.20
2019-01-30T08:58:11.428Z,28.73
2019-01-30T09:00:39.284Z,28.50
2019-01-30T09:03:14.594Z,27.93
2019-01-30T09:05:37.296Z,28.13
2019-01-30T09:08:05.427Z,26.90
2019-01-30T09:10:33.522Z,27.47
2019-01-30T09:13:01.579Z,27.13
2019-01-30T09:15:29.609Z,30.33
2019-01-30T09:17:57.672Z,30.63
2019-01-30T09:20:25.874Z,30.30
2019-01-30T09:22:53.938Z,29.97
2019-01-30T09:25:23.711Z,32.67
2019-01-30T09:27:51.759Z,31.47
2019-01-30T09:30:40.749Z,31.07
2019-01-30T09:33:09.686Z,29.87
2019-01-30T09:35:37.597Z,27.90
2019-01-30T09:38:05.436Z,31.00
2019-01-30T09:40:33.399Z,27.87
2019-01-30T09:43:01.449Z,27.83
2019-01-30T09:45:29.569Z,29.20
2019-01-30T09:47:57.788Z,32.87
2019-01-30T09:50:26.026Z,30.90
2019-01-30T09:52:54.355Z,29.03
2019-01-30T09:55:22.942Z,29.43
2019-01-30T09:57:52.777Z,32.77
2019-01-30T10:00:24.374Z,30.23
2019-01-30T10:02:52.467Z,26.63
2019-01-30T10:05:20.494Z,35.30
2019-01-30T10:07:48.599Z,31.07
2019-01-30T10:10:19.340Z,31.80
2019-01-30T10:12:47.556Z,32.13
2019-01-30T10:15:17.538Z,34.20
2019-01-30T10:17:45.328Z,30.00
2019-01-30T10:20:16.117Z,29.53
2019-01-30T10:22:44.333Z,28.73
2019-01-30T10:25:12.603Z,26.70
2019-01-30T10:27:40.576Z,24.23
2019-01-30T10:30:11.208Z,23.93
2019-01-30T10:32:39.176Z,28.23
2019-01-30T10:35:07.097Z,22.90
2019-01-30T10:37:35.021Z,27.23
2019-01-30T10:40:03.509Z,24.70
2019-01-30T10:42:31.582Z,28.93
2019-01-30T10:44:59.843Z,24.00
2019-01-30T10:47:27.969Z,25.93
2019-01-30T10:49:55.978Z,26.37
2019-01-30T10:52:24.102Z,26.93
2019-01-30T10:54:53.605Z,24.93
2019-01-30T10:57:21.896Z,26.00
2019-01-30T10:59:50.144Z,23.97
2019-01-30T11:02:21.425Z,24.87
2019-01-30T11:04:49.486Z,24.63
2019-01-30T11:07:17.457Z,27.87
2019-01-30T11:09:45.410Z,24.80
2019-01-30T11:12:13.407Z,27.93
2019-01-30T11:14:41.218Z,24.73
2019-01-30T11:17:09.248Z,23.97
2019-01-30T11:19:37.152Z,26.03
2019-01-30T11:22:05.588Z,23.20
2019-01-30T11:24:33.588Z,24.07
2019-01-30T11:27:01.765Z,24.10
2019-01-30T11:29:29.922Z,24.47
2019-01-30T11:31:57.988Z,25.60
2019-01-30T11:34:25.848Z,22.80
2019-01-30T11:36:53.756Z,22.97
2019-01-30T11:39:21.792Z,24.77
2019-01-30T11:41:49.955Z,24.23
2019-01-30T11:44:18.044Z,26.70
2019-01-30T11:46:45.999Z,21.63
2019-01-30T11:49:14.253Z,23.83
2019-01-30T11:51:42.157Z,16.33
2019-01-30T11:54:10.341Z,19.70
2019-01-30T11:56:39.349Z,18.10
2019-01-30T11:59:07.297Z,20.73
2019-01-30T12:01:35.570Z,21.53
2019-01-30T12:04:04.075Z,21.73
2019-01-30T12:06:32.096Z,21.20
2019-01-30T12:09:00.198Z,23.77
2019-01-30T12:11:29.099Z,24.23
2019-01-30T12:13:57.090Z,24.50
2019-01-30T12:16:25.065Z,22.87
2019-01-30T12:18:53.127Z,23.13
2019-01-30T12:21:21.040Z,25.30
2019-01-30T12:23:48.989Z,25.60
2019-01-30T12:26:16.959Z,28.10
2019-01-30T12:28:45.307Z,29.07
2019-01-30T12:31:13.244Z,23.10
2019-01-30T12:33:41.284Z,28.33
2019-01-30T12:36:09.349Z,27.33
2019-01-30T12:38:38.257Z,27.47
2019-01-30T12:41:06.197Z,25.67
2019-01-30T12:43:34.126Z,28.50
2019-01-30T12:46:02.042Z,29.47
2019-01-30T12:48:30.069Z,30.03
2019-01-30T12:50:58.148Z,28.33
2019-01-30T12:53:25.967Z,28.30
2019-01-30T12:55:54.171Z,26.03
2019-01-30T12:58:22.356Z,28.57
2019-01-30T13:00:50.635Z,27.17
2019-01-30T13:03:18.727Z,32.73
2019-01-30T13:05:46.745Z,27.07
2019-01-30T13:08:14.702Z,34.77
2019-01-30T13:10:42.694Z,33.73
2019-01-30T13:13:10.891Z,33.17
2019-01-30T13:15:40.474Z,28.73
2019-01-30T13:18:18.046Z,29.30
2019-01-30T13:20:38.751Z,27.57
2019-01-30T13:23:06.764Z,23.73
2019-01-30T13:25:35.760Z,25.27
2019-01-30T13:28:05.228Z,24.57
2019-01-30T13:30:37.728Z,23.10
2019-01-30T13:33:07.142Z,26.20
2019-01-30T13:35:35.130Z,27.93
2019-01-30T13:38:03.358Z,23.53
2019-01-30T13:40:33.683Z,23.70
2019-01-30T13:43:01.939Z,22.73
2019-01-30T13:45:30.569Z,27.03
2019-01-30T13:47:58.586Z,28.87
2019-01-30T13:50:27.879Z,27.70
2019-01-30T13:52:55.884Z,40.00
2019-01-30T13:55:23.790Z,23.97
2019-01-30T13:57:51.854Z,24.77
2019-01-30T14:00:25.110Z,23.50
2019-01-30T14:02:53.205Z,25.27
2019-01-30T14:05:21.628Z,16.73
2019-01-30T14:07:50.065Z,18.40
2019-01-30T14:10:18.221Z,19.47
2019-01-30T14:12:46.147Z,19.20
2019-01-30T14:15:15.705Z,16.97
2019-01-30T14:17:43.717Z,16.30
2019-01-30T14:20:12.296Z,17.67
2019-01-30T14:22:40.387Z,18.40
2019-01-30T14:25:09.189Z,19.10
2019-01-30T14:27:37.023Z,15.90
2019-01-30T14:30:08.689Z,22.03
2019-01-30T14:32:36.677Z,13.80
2019-01-30T14:35:10.773Z,18.63
2019-01-30T14:37:35.358Z,19.10
2019-01-30T14:40:04.586Z,14.37
2019-01-30T14:42:35.076Z,20.47
2019-01-30T14:45:07.263Z,12.97
2019-01-30T14:47:35.134Z,15.17
2019-01-30T14:50:04.138Z,15.20
2019-01-30T14:52:31.988Z,13.13
2019-01-30T14:55:00.247Z,14.60
2019-01-30T14:57:28.523Z,13.57
2019-01-30T14:59:56.504Z,16.37
2019-01-30T15:02:24.489Z,15.33
2019-01-30T15:04:52.673Z,12.77
2019-01-30T15:07:28.824Z,17.43
2019-01-30T15:09:50.406Z,15.13
2019-01-30T15:12:18.520Z,15.33
2019-01-30T15:14:46.589Z,21.37
2019-01-30T15:17:14.824Z,21.27
2019-01-30T15:19:42.852Z,19.43
2019-01-30T15:22:11.108Z,23.23
2019-01-30T15:24:39.274Z,19.93
2019-01-30T15:27:07.672Z,26.33
2019-01-30T15:29:35.587Z,26.53
2019-01-30T15:32:03.940Z,18.40
2019-01-30T15:34:31.888Z,18.37
2019-01-30T15:36:59.776Z,18.43
2019-01-30T15:39:27.860Z,21.10
2019-01-30T15:41:56.098Z,18.20
2019-01-30T15:44:25.182Z,24.67
2019-01-30T15:46:53.185Z,23.37
2019-01-30T15:49:21.150Z,22.87
2019-01-30T15:51:48.927Z,23.23
2019-01-30T15:54:18.785Z,23.00
2019-01-30T15:56:46.986Z,23.27
2019-01-30T15:59:14.996Z,23.13
2019-01-30T16:01:44.892Z,22.17
2019-01-30T16:04:13.887Z,26.63
2019-01-30T16:06:41.956Z,23.37
2019-01-30T16:09:09.939Z,30.93
2019-01-30T16:11:37.805Z,26.43
2019-01-30T16:14:05.905Z,27.67
2019-01-30T16:16:33.899Z,23.80
2019-01-30T16:19:01.795Z,29.13
2019-01-30T16:21:31.131Z,25.50
2019-01-30T16:24:02.002Z,25.33
2019-01-30T16:26:29.919Z,28.20
2019-01-30T16:28:57.755Z,29.60
2019-01-30T16:31:25.839Z,24.93
2019-01-30T16:33:53.904Z,23.57
2019-01-30T16:36:21.867Z,26.13
2019-01-30T16:38:49.943Z,28.30
2019-01-30T16:41:18.018Z,25.17
2019-01-30T16:43:46.058Z,24.83
2019-01-30T16:46:15.560Z,24.30
2019-01-30T16:48:43.797Z,30.10
2019-01-30T16:51:11.942Z,26.70
2019-01-30T16:53:40.049Z,27.77
2019-01-30T16:56:08.181Z,26.17
2019-01-30T16:58:36.228Z,23.23
2019-01-30T17:01:04.549Z,23.67
2019-01-30T17:03:32.595Z,26.77
2019-01-30T17:06:07.482Z,25.00
2019-01-30T17:08:33.171Z,24.90
2019-01-30T17:11:01.310Z,26.37
2019-01-30T17:13:29.302Z,25.27
2019-01-30T17:15:57.380Z,24.63
2019-01-30T17:18:25.260Z,25.63
2019-01-30T17:20:53.101Z,27.53
2019-01-30T17:23:21.124Z,26.90
2019-01-30T17:25:49.264Z,24.93
2019-01-30T17:28:17.067Z,33.37
2019-01-30T17:30:54.326Z,37.30
2019-01-30T17:33:22.210Z,27.53
2019-01-30T17:35:50.155Z,23.93
2019-01-30T17:38:18.049Z,27.50
2019-01-30T17:40:46.354Z,24.97
2019-01-30T17:43:14.473Z,23.10
2019-01-30T17:45:42.461Z,23.03
2019-01-30T17:48:11.762Z,26.60
2019-01-30T17:50:40.382Z,23.20
2019-01-30T17:53:08.220Z,24.07
2019-01-30T17:55:37.709Z,25.00
2019-01-30T17:58:06.745Z,24.00
2019-01-30T18:00:52.481Z,27.13
2019-01-30T18:03:20.610Z,25.17
2019-01-30T18:05:48.618Z,25.03
2019-01-30T18:08:22.362Z,25.07
2019-01-30T18:10:50.495Z,22.10
2019-01-30T18:13:18.146Z,29.63
2019-01-30T18:15:45.882Z,26.70
2019-01-30T18:18:13.486Z,24.77
2019-01-30T18:20:41.321Z,23.77
2019-01-30T18:23:09.050Z,24.47
2019-01-30T18:25:36.785Z,25.73
2019-01-30T18:28:04.533Z,26.80
2019-01-30T18:30:32.268Z,24.27
2019-01-30T18:32:59.901Z,27.23
2019-01-30T18:35:27.881Z,25.03
2019-01-30T18:37:55.430Z,23.57
2019-01-30T18:40:23.079Z,26.67
2019-01-30T18:42:50.686Z,27.23
2019-01-30T18:45:26.671Z,25.70
2019-01-30T18:47:54.429Z,27.77
2019-01-30T18:50:24.067Z,26.57
2019-01-30T18:52:51.675Z,26.63
2019-01-30T18:55:19.517Z,25.90
2019-01-30T18:57:47.768Z,27.70
2019-01-30T19:00:27.088Z,26.30
2019-01-30T19:02:56.358Z,27.00
2019-01-30T19:05:24.225Z,29.30
2019-01-30T19:07:51.979Z,26.23
2019-01-30T19:10:19.705Z,31.63
2019-01-30T19:12:47.371Z,28.90
2019-01-30T19:15:17.316Z,32.93
2019-01-30T19:17:44.885Z,30.70
2019-01-30T19:20:15.768Z,27.60
2019-01-30T19:22:43.365Z,28.37
2019-01-30T19:25:11.527Z,27.90
2019-01-30T19:27:39.123Z,26.43
2019-01-30T19:30:10.990Z,27.97
2019-01-30T19:32:38.660Z,28.13
2019-01-30T19:35:06.595Z,27.33
2019-01-30T19:37:34.264Z,32.77
2019-01-30T19:40:01.922Z,28.73
2019-01-30T19:42:29.577Z,29.40
2019-01-30T19:44:57.302Z,33.13
2019-01-30T19:47:24.891Z,35.53
2019-01-30T19:49:52.582Z,40.70
2019-01-30T19:52:20.241Z,41.47
2019-01-30T19:54:48.115Z,36.97
2019-01-30T19:57:15.650Z,34.50
2019-01-30T19:59:43.440Z,31.17
2019-01-30T20:02:11.090Z,33.23
2019-01-30T20:04:41.620Z,35.93
2019-01-30T20:07:14.861Z,33.63
2019-01-30T20:09:38.890Z,31.60
2019-01-30T20:12:06.480Z,32.10
2019-01-30T20:14:34.168Z,30.17
2019-01-30T20:17:01.789Z,34.07
2019-01-30T20:19:29.467Z,30.53
2019-01-30T20:21:57.102Z,30.77
2019-01-30T20:24:26.568Z,32.37
2019-01-30T20:26:54.167Z,34.27
2019-01-30T20:29:22.842Z,34.73
2019-01-30T20:31:50.583Z,33.93
2019-01-30T20:34:18.321Z,34.53
2019-01-30T20:36:46.047Z,32.50
2019-01-30T20:39:16.454Z,37.57
2019-01-30T20:41:44.227Z,35.93
2019-01-30T20:44:11.961Z,35.80
2019-01-30T20:46:39.744Z,35.10
2019-01-30T20:49:07.535Z,35.40
2019-01-30T20:51:35.262Z,39.10
2019-01-30T20:54:03.001Z,35.43
2019-01-30T20:56:30.695Z,33.90
2019-01-30T20:58:58.354Z,36.47
2019-01-30T21:01:26.490Z,36.60
2019-01-30T21:03:54.408Z,39.33
2019-01-30T21:06:22.483Z,39.40
2019-01-30T21:08:50.511Z,38.63
2019-01-30T21:11:18.144Z,39.97
2019-01-30T21:13:45.727Z,38.60
2019-01-30T21:16:13.402Z,35.97
2019-01-30T21:18:41.030Z,38.30
2019-01-30T21:21:08.700Z,37.27
2019-01-30T21:23:36.351Z,38.33
2019-01-30T21:26:04.114Z,37.90
2019-01-30T21:28:32.102Z,35.40
2019-01-30T21:31:00.161Z,37.83
2019-01-30T21:33:28.204Z,36.43
2019-01-30T21:35:56.519Z,39.20
2019-01-30T21:38:24.584Z,35.50
2019-01-30T21:40:52.524Z,38.77
2019-01-30T21:43:20.557Z,35.70
2019-01-30T21:45:48.776Z,35.87
2019-01-30T21:48:16.844Z,35.67
2019-01-30T21:50:44.828Z,37.93
2019-01-30T21:53:12.791Z,37.93
2019-01-30T21:55:40.754Z,39.07
2019-01-30T21:58:09.110Z,36.03
2019-01-30T22:00:37.002Z,35.13
2019-01-30T22:03:05.067Z,36.53
2019-01-30T22:05:32.814Z,40.60
2019-01-30T22:08:01.377Z,36.53
2019-01-30T22:10:29.554Z,37.33
2019-01-30T22:12:57.153Z,40.37
2019-01-30T22:15:26.503Z,39.23
2019-01-30T22:17:54.118Z,41.40
2019-01-30T22:20:23.417Z,41.57
2019-01-30T22:22:51.030Z,39.57
2019-01-30T22:25:20.708Z,40.20
2019-01-30T22:27:49.288Z,38.70
2019-01-30T22:30:22.154Z,40.07
2019-01-30T22:32:50.297Z,39.03
2019-01-30T22:35:18.074Z,39.97
2019-01-30T22:37:45.764Z,39.03
2019-01-30T22:40:14.019Z,40.30
2019-01-30T22:42:41.752Z,38.23
2019-01-30T22:45:11.779Z,38.97
2019-01-30T22:47:39.476Z,41.27
2019-01-30T22:50:08.141Z,41.37
2019-01-30T22:52:35.824Z,42.10
2019-01-30T22:55:04.733Z,42.87
2019-01-30T22:57:32.463Z,41.07
2019-01-30T23:00:00.098Z,38.27
2019-01-30T23:02:28.986Z,40.13
2019-01-30T23:05:24.841Z,41.70
2019-01-30T23:08:09.202Z,41.90
2019-01-30T23:11:19.944Z,40.70
2019-01-30T23:14:35.455Z,41.60
2019-01-30T23:17:49.496Z,46.13
2019-01-30T23:20:30.297Z,40.47
2019-01-30T23:23:23.935Z,40.23
2019-01-30T23:26:13.408Z,40.43
2019-01-30T23:29:14.345Z,38.77
2019-01-30T23:32:00.811Z,39.67
2019-01-30T23:35:01.760Z,40.73
2019-01-30T23:38:06.863Z,38.50
2019-01-30T23:40:51.938Z,43.57
2019-01-30T23:43:48.482Z,40.80
2019-01-30T23:46:38.423Z,41.90
2019-01-30T23:49:44.460Z,41.40
2019-01-30T23:52:39.787Z,42.80
2019-01-30T23:55:48.346Z,41.47
2019-01-30T23:58:53.563Z,43.17
